Time;durP1;ratioP1;P1;durP2;ratioP2;P2;SDS_P1;SDS_P2;PMS_P1;PMS_P2;Temp;Humidity;BMP_temperature;BMP_pressure;BME280_temperature;BME280_humidity;BME280_pressure;Samples;Min_cycle;Max_cycle;Signal;HPM_P1;HPM_P2
2022/05/01 00:00:06;;;;;;;8.10;2.80;;;10.50;99.90;;;;;;4900829;29;20191;-79
2022/05/01 00:02:32;;;;;;;7.25;2.80;;;10.50;99.90;;;;;;4900198;29;20243;-79
2022/05/01 00:04:58;;;;;;;7.68;2.78;;;10.50;99.90;;;;;;4901839;29;20179;-79
2022/05/01 00:07:24;;;;;;;6.05;2.58;;;10.50;99.90;;;;;;4901370;29;20183;-79
2022/05/01 00:09:49;;;;;;;4.45;2.90;;;10.60;99.90;;;;;;4901461;29;20219;-79
2022/05/01 00:12:15;;;;;;;4.47;2.88;;;10.60;99.90;;;;;;4901631;29;20222;-78
2022/05/01 00:14:41;;;;;;;3.80;2.65;;;10.60;99.90;;;;;;4902173;29;20211;-79
2022/05/01 00:17:06;;;;;;;5.05;2.75;;;10.60;99.90;;;;;;4901544;29;20521;-79
2022/05/01 00:19:32;;;;;;;3.78;2.70;;;10.60;99.90;;;;;;4901667;29;20179;-79
2022/05/01 00:21:59;;;;;;;4.50;2.72;;;10.60;99.90;;;;;;4901818;29;20573;-78
2022/05/01 00:24:25;;;;;;;7.28;3.03;;;10.60;99.90;;;;;;4901753;29;20201;-79
2022/05/01 00:26:51;;;;;;;8.20;3.05;;;10.50;99.90;;;;;;4898564;29;20188;-78
2022/05/01 00:29:17;;;;;;;6.45;3.10;;;10.50;99.90;;;;;;4901573;29;20167;-78
2022/05/01 00:31:43;;;;;;;9.83;3.10;;;10.40;99.90;;;;;;4900763;29;20217;-79
2022/05/01 00:36:52;;;;;;;3.45;2.72;;;10.40;99.90;;;;;;4901496;29;20200;-79
2022/05/01 00:39:19;;;;;;;4.70;2.90;;;10.40;99.90;;;;;;4899950;29;20188;-79
2022/05/01 00:41:46;;;;;;;3.73;2.90;;;10.40;99.90;;;;;;4899394;29;20203;-79
2022/05/01 00:44:21;;;;;;;5.28;3.03;;;10.40;99.90;;;;;;4901017;29;20526;-79
2022/05/01 00:46:49;;;;;;;5.70;3.03;;;10.40;99.90;;;;;;4900597;29;20194;-78
2022/05/01 00:49:21;;;;;;;8.00;3.30;;;10.50;99.90;;;;;;4899979;29;20185;-79
2022/05/01 00:51:50;;;;;;;5.78;3.22;;;10.40;99.90;;;;;;4900843;29;20646;-79
2022/05/01 00:54:18;;;;;;;4.22;3.15;;;10.40;99.90;;;;;;4900941;29;20219;-79
2022/05/01 00:56:50;;;;;;;4.65;3.20;;;10.40;99.90;;;;;;4900759;29;20196;-79
2022/05/01 00:59:16;;;;;;;4.93;3.13;;;10.40;99.90;;;;;;4899955;29;20214;-79
2022/05/01 01:01:43;;;;;;;4.35;2.90;;;10.40;99.90;;;;;;4901033;29;20188;-79
2022/05/01 01:04:10;;;;;;;4.53;2.97;;;10.40;99.90;;;;;;4899763;29;20274;-80
2022/05/01 01:06:37;;;;;;;7.22;3.22;;;10.40;99.90;;;;;;4919977;29;20196;-78
2022/05/01 01:09:04;;;;;;;3.78;2.80;;;10.40;99.90;;;;;;4919475;29;20170;-79
2022/05/01 01:11:30;;;;;;;15.88;3.20;;;10.40;99.90;;;;;;4934319;29;20680;-79
2022/05/01 01:13:58;;;;;;;6.57;3.23;;;10.40;99.90;;;;;;4919206;29;20191;-79
2022/05/01 01:16:24;;;;;;;7.87;3.27;;;10.40;99.90;;;;;;4911415;29;20219;-79
2022/05/01 01:18:50;;;;;;;4.95;3.03;;;10.40;99.90;;;;;;4900487;29;20580;-78
2022/05/01 01:21:15;;;;;;;4.95;2.80;;;10.40;99.90;;;;;;4900932;29;20262;-79
2022/05/01 01:23:42;;;;;;;7.22;3.50;;;10.30;99.90;;;;;;4899616;29;20546;-79
2022/05/01 01:26:09;;;;;;;6.30;2.63;;;10.30;99.90;;;;;;4900661;29;20203;-79
2022/05/01 01:28:37;;;;;;;6.00;3.23;;;10.30;99.90;;;;;;4900578;29;20509;-79
2022/05/01 01:33:53;;;;;;;6.60;3.10;;;10.30;99.90;;;;;;4900553;29;20216;-79
2022/05/01 01:36:24;;;;;;;3.23;2.80;;;10.30;99.90;;;;;;4900616;29;20175;-78
2022/05/01 01:38:50;;;;;;;4.45;3.20;;;10.30;99.90;;;;;;4900586;29;20175;-79
2022/05/01 01:41:22;;;;;;;6.03;3.53;;;10.30;99.90;;;;;;4900494;29;20567;-79
2022/05/01 01:43:49;;;;;;;7.25;3.38;;;10.30;99.90;;;;;;4900352;29;20176;-79
2022/05/01 01:46:15;;;;;;;5.53;3.22;;;10.20;99.90;;;;;;4900363;29;20274;-80
2022/05/01 01:48:41;;;;;;;5.50;3.47;;;10.30;99.90;;;;;;4900058;29;20183;-79
2022/05/01 01:51:07;;;;;;;6.03;3.42;;;10.30;99.90;;;;;;4900183;29;20211;-79
2022/05/01 01:53:35;;;;;;;4.00;3.05;;;10.30;99.90;;;;;;4899684;29;20618;-79
2022/05/01 01:56:01;;;;;;;4.20;3.13;;;10.30;99.90;;;;;;4899452;29;20223;-79
2022/05/01 01:58:28;;;;;;;5.27;3.27;;;10.30;99.90;;;;;;4899656;29;20223;-79
2022/05/01 02:00:54;;;;;;;3.58;2.90;;;10.20;99.90;;;;;;4899095;29;20646;-79
2022/05/01 02:03:20;;;;;;;3.90;3.05;;;10.20;99.90;;;;;;4899384;29;20194;-79
2022/05/01 02:05:49;;;;;;;4.72;3.22;;;10.20;99.90;;;;;;4899547;29;20266;-79
2022/05/01 02:08:15;;;;;;;3.35;2.90;;;10.10;99.90;;;;;;4899730;29;20523;-80
2022/05/01 02:10:43;;;;;;;4.47;3.10;;;10.10;99.90;;;;;;4899751;29;20167;-79
2022/05/01 02:13:09;;;;;;;4.60;3.13;;;10.20;99.90;;;;;;4908976;29;20230;-79
2022/05/01 02:15:36;;;;;;;4.30;3.05;;;10.10;99.90;;;;;;4916929;29;20238;-79
2022/05/01 02:18:03;;;;;;;6.43;3.08;;;10.20;99.90;;;;;;4899511;29;20274;-79
2022/05/01 02:23:17;;;;;;;4.23;2.97;;;10.10;99.90;;;;;;4870580;29;20203;-79
2022/05/01 02:25:43;;;;;;;6.03;3.07;;;10.00;99.90;;;;;;4899550;29;20498;-78
2022/05/01 02:28:10;;;;;;;7.07;3.33;;;10.00;99.90;;;;;;4898821;29;20194;-78
2022/05/01 02:30:37;;;;;;;4.68;3.05;;;10.00;99.90;;;;;;4899601;29;20171;-78
2022/05/01 02:33:03;;;;;;;6.90;3.47;;;10.00;99.90;;;;;;4897984;29;20198;-79
2022/05/01 02:35:29;;;;;;;6.20;2.95;;;10.00;99.90;;;;;;4899461;29;20205;-78
2022/05/01 02:37:54;;;;;;;4.60;3.03;;;10.00;99.90;;;;;;4899362;29;20266;-78
2022/05/01 02:40:20;;;;;;;7.80;3.25;;;10.00;99.90;;;;;;4899423;29;20199;-79
2022/05/01 02:42:46;;;;;;;4.90;3.00;;;9.90;99.90;;;;;;4899135;29;20183;-78
2022/05/01 02:45:11;;;;;;;5.55;3.15;;;9.90;99.90;;;;;;4899611;29;20183;-79
2022/05/01 02:47:37;;;;;;;5.63;3.30;;;9.90;99.90;;;;;;4898516;29;20187;-78
2022/05/01 02:50:03;;;;;;;5.75;3.40;;;9.90;99.90;;;;;;4899130;29;20198;-78
2022/05/01 02:52:29;;;;;;;4.95;2.90;;;9.90;99.90;;;;;;4897791;29;20223;-78
2022/05/01 02:54:54;;;;;;;5.90;3.55;;;9.90;99.90;;;;;;4899017;29;20235;-78
2022/05/01 02:57:22;;;;;;;4.70;2.90;;;9.90;99.90;;;;;;4899323;29;20194;-78
2022/05/01 02:59:47;;;;;;;7.37;3.50;;;9.90;99.90;;;;;;4899115;29;20164;-78
2022/05/01 03:02:14;;;;;;;4.67;3.40;;;9.90;99.90;;;;;;4898630;29;20270;-78
2022/05/01 03:04:40;;;;;;;4.30;3.10;;;9.80;99.90;;;;;;4899368;29;20587;-78
2022/05/01 03:07:07;;;;;;;5.60;3.50;;;9.80;99.90;;;;;;4899396;29;20195;-78
2022/05/01 03:09:34;;;;;;;5.43;3.35;;;9.80;99.90;;;;;;4916894;29;20197;-78
2022/05/01 03:12:01;;;;;;;4.37;3.47;;;9.80;99.90;;;;;;4902479;29;20669;-78
2022/05/01 03:14:27;;;;;;;8.37;3.50;;;9.80;99.90;;;;;;4901851;29;20282;-78
2022/05/01 03:16:52;;;;;;;4.37;3.03;;;9.80;99.90;;;;;;4902926;29;20273;-78
2022/05/01 03:22:13;;;;;;;6.83;3.47;;;9.70;99.90;;;;;;4920980;29;20205;-78
2022/05/01 03:24:40;;;;;;;5.63;3.10;;;9.80;99.90;;;;;;4921807;29;20225;-78
2022/05/01 03:27:06;;;;;;;10.37;3.53;;;9.80;99.90;;;;;;4921221;29;20195;-78
2022/05/01 03:29:33;;;;;;;6.37;2.97;;;9.80;99.90;;;;;;4920280;29;20210;-79
2022/05/01 03:31:59;;;;;;;4.20;3.40;;;9.80;99.90;;;;;;4921351;29;20625;-78
2022/05/01 03:34:26;;;;;;;5.50;3.60;;;9.90;99.90;;;;;;4919801;29;20314;-77
2022/05/01 03:36:55;;;;;;;5.40;3.43;;;9.80;99.90;;;;;;4935398;29;20249;-78
2022/05/01 03:39:21;;;;;;;4.77;3.20;;;9.80;99.90;;;;;;4921434;29;20516;-78
2022/05/01 03:41:47;;;;;;;4.10;3.50;;;9.80;99.90;;;;;;4921543;29;20170;-78
2022/05/01 03:44:13;;;;;;;5.87;3.43;;;9.80;99.90;;;;;;4921225;29;20182;-78
2022/05/01 03:46:41;;;;;;;4.63;3.20;;;9.80;99.90;;;;;;4911205;29;20574;-78
2022/05/01 03:49:09;;;;;;;6.97;3.40;;;9.80;99.90;;;;;;4901670;29;20606;-77
2022/05/01 03:51:35;;;;;;;7.10;3.33;;;9.80;99.90;;;;;;4902297;29;20215;-78
2022/05/01 03:54:02;;;;;;;5.33;3.03;;;9.70;99.90;;;;;;4902082;29;20191;-78
2022/05/01 03:56:32;;;;;;;5.70;3.40;;;9.70;99.90;;;;;;4902081;29;20568;-78
2022/05/01 03:58:58;;;;;;;4.83;3.23;;;9.60;99.90;;;;;;4901955;29;20650;-78
2022/05/01 04:01:24;;;;;;;7.63;3.53;;;9.60;99.90;;;;;;4902330;29;20254;-78
2022/05/01 04:03:51;;;;;;;5.57;3.63;;;9.60;99.90;;;;;;4916417;29;20519;-78
2022/05/01 04:06:17;;;;;;;4.73;3.97;;;9.60;99.90;;;;;;4902011;29;20603;-78
2022/05/01 04:08:42;;;;;;;4.80;3.67;;;9.60;99.90;;;;;;4901853;29;20323;-78
2022/05/01 04:11:08;;;;;;;8.07;3.40;;;9.60;99.90;;;;;;4901172;29;20549;-78
2022/05/01 04:13:35;;;;;;;4.90;3.27;;;9.60;99.90;;;;;;4901828;29;20530;-79
2022/05/01 04:16:01;;;;;;;5.73;3.83;;;9.60;99.90;;;;;;4902028;29;20278;-78
2022/05/01 04:18:27;;;;;;;8.40;3.97;;;9.60;99.90;;;;;;4900284;29;20626;-79
2022/05/01 04:20:52;;;;;;;6.27;4.00;;;9.60;99.90;;;;;;4900870;29;20167;-79
2022/05/01 04:23:19;;;;;;;5.60;3.73;;;9.60;99.90;;;;;;4901831;29;20188;-78
2022/05/01 04:25:45;;;;;;;5.77;3.60;;;9.60;99.90;;;;;;4901687;29;20184;-78
2022/05/01 04:28:12;;;;;;;6.10;4.27;;;9.60;99.90;;;;;;4900495;29;20577;-79
2022/05/01 04:30:40;;;;;;;6.73;4.00;;;9.60;99.90;;;;;;4901345;29;20630;-78
2022/05/01 04:33:08;;;;;;;5.17;3.77;;;9.60;99.90;;;;;;4901242;29;20251;-78
2022/05/01 04:35:37;;;;;;;7.47;4.10;;;9.60;99.90;;;;;;4911702;29;20590;-78
2022/05/01 04:38:04;;;;;;;6.63;4.37;;;9.60;99.90;;;;;;4935021;29;20209;-78
2022/05/01 04:40:31;;;;;;;6.23;4.37;;;9.70;99.90;;;;;;4911150;29;20192;-77
2022/05/01 04:43:17;;;;;;;7.20;4.10;;;9.70;99.90;;;;;;4898606;29;20235;-78
2022/05/01 04:45:45;;;;;;;7.40;4.30;;;9.60;99.90;;;;;;4903587;29;20589;-78
2022/05/01 04:48:12;;;;;;;8.93;4.03;;;9.60;99.90;;;;;;4911195;29;20189;-78
2022/05/01 04:50:38;;;;;;;10.57;4.83;;;9.60;99.90;;;;;;4901227;29;20185;-78
2022/05/01 04:53:09;;;;;;;5.77;4.13;;;9.60;99.90;;;;;;4900183;29;20222;-78
2022/05/01 04:55:36;;;;;;;13.37;4.33;;;9.60;99.90;;;;;;4882284;29;20282;-78
2022/05/01 04:58:02;;;;;;;9.13;4.60;;;9.60;99.90;;;;;;4882295;29;20188;-78
2022/05/01 05:00:29;;;;;;;8.77;4.50;;;9.60;99.90;;;;;;4882199;29;20181;-78
2022/05/01 05:02:56;;;;;;;7.30;4.57;;;9.50;99.90;;;;;;4896379;29;20274;-78
2022/05/01 05:05:23;;;;;;;7.73;4.37;;;9.50;99.90;;;;;;4892690;29;20191;-78
2022/05/01 05:07:49;;;;;;;6.13;4.30;;;9.50;99.90;;;;;;4891323;29;20246;-78
2022/05/01 05:10:16;;;;;;;6.13;4.40;;;9.60;99.90;;;;;;4891004;29;20183;-78
2022/05/01 05:12:44;;;;;;;6.13;4.30;;;9.60;99.90;;;;;;4889381;29;20214;-78
2022/05/01 05:15:14;;;;;;;7.03;4.30;;;9.60;99.90;;;;;;4882034;29;20600;-78
2022/05/01 05:17:40;;;;;;;7.10;4.63;;;9.60;99.90;;;;;;4899628;29;20558;-78
2022/05/01 05:20:09;;;;;;;8.17;4.23;;;9.60;99.90;;;;;;4897420;29;20183;-78
2022/05/01 05:22:35;;;;;;;5.93;3.97;;;9.60;99.90;;;;;;4892085;29;20203;-78
2022/05/01 05:25:03;;;;;;;6.50;4.20;;;9.60;99.90;;;;;;4890122;29;20207;-78
2022/05/01 05:27:29;;;;;;;8.17;4.17;;;9.60;99.90;;;;;;4893501;29;20271;-78
2022/05/01 05:29:56;;;;;;;9.97;4.30;;;9.60;99.90;;;;;;4899084;29;20273;-78
2022/05/01 05:32:23;;;;;;;5.43;4.30;;;9.60;99.90;;;;;;4891064;29;20242;-78
2022/05/01 05:34:49;;;;;;;7.53;4.20;;;9.70;99.90;;;;;;4901194;29;20518;-78
2022/05/01 05:37:15;;;;;;;7.70;4.60;;;9.70;99.90;;;;;;4900531;29;20219;-78
2022/05/01 05:39:42;;;;;;;7.90;4.33;;;9.70;99.90;;;;;;4899110;29;20231;-78
2022/05/01 05:42:08;;;;;;;9.70;4.67;;;9.70;99.90;;;;;;4900245;29;20602;-78
2022/05/01 05:44:34;;;;;;;9.07;4.37;;;9.70;99.90;;;;;;4900327;29;20175;-78
2022/05/01 05:47:00;;;;;;;5.87;4.43;;;9.70;99.90;;;;;;4900263;29;20187;-78
2022/05/01 05:49:26;;;;;;;9.03;4.33;;;9.70;99.90;;;;;;4899130;29;20526;-78
2022/05/01 05:51:51;;;;;;;6.87;4.10;;;9.70;99.90;;;;;;4900281;29;20215;-79
2022/05/01 05:54:17;;;;;;;9.67;4.40;;;9.70;99.90;;;;;;4899782;29;20291;-78
2022/05/01 05:56:43;;;;;;;7.30;4.50;;;9.70;99.90;;;;;;4885503;29;20560;-79
2022/05/01 05:59:08;;;;;;;7.93;3.97;;;9.70;99.90;;;;;;4884739;29;20596;-78
2022/05/01 06:01:34;;;;;;;8.03;4.20;;;9.70;99.90;;;;;;4898677;29;20187;-78
2022/05/01 06:04:01;;;;;;;12.97;4.60;;;9.70;99.90;;;;;;4900001;29;20175;-79
2022/05/01 06:06:26;;;;;;;5.40;4.00;;;9.70;99.90;;;;;;4899884;29;20184;-79
2022/05/01 06:08:52;;;;;;;11.50;4.85;;;9.70;99.90;;;;;;4899544;29;20186;-79
2022/05/01 06:11:18;;;;;;;9.87;4.43;;;9.70;99.90;;;;;;4899607;29;20214;-79
2022/05/01 06:13:44;;;;;;;10.30;4.50;;;9.70;99.90;;;;;;4899689;29;20190;-79
2022/05/01 06:16:10;;;;;;;6.20;4.60;;;9.80;99.90;;;;;;4899795;29;20191;-79
2022/05/01 06:18:36;;;;;;;7.13;4.47;;;9.70;99.90;;;;;;4899278;29;20180;-78
2022/05/01 06:21:02;;;;;;;7.33;4.87;;;9.70;99.90;;;;;;4899796;29;20190;-79
2022/05/01 06:23:28;;;;;;;8.57;4.97;;;9.70;99.90;;;;;;4899426;29;20194;-79
2022/05/01 06:25:55;;;;;;;7.27;4.67;;;9.70;99.90;;;;;;4900087;29;20187;-79
2022/05/01 06:28:20;;;;;;;11.13;4.70;;;9.70;99.90;;;;;;4899718;29;20182;-79
2022/05/01 06:30:49;;;;;;;11.82;5.30;;;9.80;99.90;;;;;;4899539;29;20547;-79
2022/05/01 06:33:20;;;;;;;8.85;4.60;;;9.80;99.90;;;;;;4899156;29;20179;-79
2022/05/01 06:35:52;;;;;;;9.07;5.23;;;9.90;99.90;;;;;;4899324;29;20174;-78
2022/05/01 06:38:18;;;;;;;7.38;4.70;;;9.90;99.90;;;;;;4917147;29;20229;-79
2022/05/01 06:40:46;;;;;;;9.33;5.27;;;9.90;99.90;;;;;;4918354;29;20181;-79
2022/05/01 06:43:13;;;;;;;7.43;4.67;;;9.80;99.90;;;;;;4892133;29;20176;-78
2022/05/01 06:45:41;;;;;;;10.43;5.03;;;9.80;99.90;;;;;;4915437;29;20186;-79
2022/05/01 06:48:08;;;;;;;12.77;5.60;;;9.80;99.90;;;;;;4897795;29;20378;-79
2022/05/01 06:50:34;;;;;;;11.17;5.37;;;9.90;99.90;;;;;;4898171;29;20519;-79
2022/05/01 06:53:00;;;;;;;9.10;5.17;;;9.80;99.90;;;;;;4899276;29;20246;-78
2022/05/01 06:55:26;;;;;;;10.90;4.63;;;9.90;99.90;;;;;;4898510;29;20235;-79
2022/05/01 06:57:53;;;;;;;8.17;4.97;;;10.00;99.90;;;;;;4897444;29;20265;-79
2022/05/01 07:00:20;;;;;;;9.10;5.77;;;10.10;99.90;;;;;;4897829;29;20686;-79
2022/05/01 07:02:50;;;;;;;8.77;5.20;;;10.10;99.90;;;;;;4899249;29;20167;-79
2022/05/01 07:05:18;;;;;;;8.63;5.10;;;10.10;99.90;;;;;;4899168;29;20554;-79
2022/05/01 07:07:44;;;;;;;9.93;5.70;;;10.10;99.90;;;;;;4898962;29;20179;-79
2022/05/01 07:10:11;;;;;;;12.07;5.33;;;10.20;99.90;;;;;;4898929;29;20190;-79
2022/05/01 07:12:37;;;;;;;9.60;5.20;;;10.20;99.90;;;;;;4898876;29;20213;-79
2022/05/01 07:15:04;;;;;;;9.65;5.15;;;10.30;99.90;;;;;;4899079;29;20163;-79
2022/05/01 07:17:31;;;;;;;9.60;6.05;;;10.40;99.90;;;;;;4897910;29;20199;-78
2022/05/01 07:19:57;;;;;;;10.73;5.53;;;10.40;99.90;;;;;;4898716;29;20182;-79
2022/05/01 07:22:23;;;;;;;11.17;5.40;;;10.50;99.90;;;;;;4897845;29;20206;-78
2022/05/01 07:24:48;;;;;;;11.40;5.40;;;10.50;99.90;;;;;;4898755;29;20673;-79
2022/05/01 07:27:14;;;;;;;10.60;5.63;;;10.50;99.90;;;;;;4897877;29;20194;-79
2022/05/01 07:29:40;;;;;;;13.88;5.95;;;10.50;99.90;;;;;;4913396;29;20187;-79
2022/05/01 07:32:06;;;;;;;9.48;5.07;;;10.50;99.90;;;;;;4897645;29;20217;-79
2022/05/01 07:34:32;;;;;;;10.07;5.18;;;10.50;99.90;;;;;;4898310;29;20183;-78
2022/05/01 07:36:57;;;;;;;6.93;5.05;;;10.60;99.90;;;;;;4913400;29;20500;-78
2022/05/01 07:39:23;;;;;;;5.80;4.57;;;10.70;99.90;;;;;;4898795;29;20628;-79
2022/05/01 07:41:49;;;;;;;8.38;4.78;;;10.80;99.90;;;;;;4898047;29;20195;-78
2022/05/01 07:44:14;;;;;;;7.03;5.05;;;11.00;99.90;;;;;;4898885;29;20183;-78
2022/05/01 07:46:41;;;;;;;8.15;4.72;;;11.00;99.90;;;;;;4899073;29;20190;-79
2022/05/01 07:49:08;;;;;;;8.43;4.70;;;11.10;99.90;;;;;;4898411;29;20721;-78
2022/05/01 07:51:35;;;;;;;8.02;4.97;;;11.10;99.90;;;;;;4899006;29;20222;-78
2022/05/01 07:54:01;;;;;;;10.30;4.22;;;11.10;99.90;;;;;;4898282;29;20175;-79
2022/05/01 07:56:27;;;;;;;12.43;4.97;;;11.10;99.90;;;;;;4901139;29;20195;-79
2022/05/01 07:58:53;;;;;;;10.93;4.70;;;11.10;99.90;;;;;;4902318;29;20227;-79
2022/05/01 08:01:20;;;;;;;10.10;5.18;;;11.10;99.90;;;;;;4902189;29;20555;-79
2022/05/01 08:06:31;;;;;;;7.70;5.00;;;11.10;99.90;;;;;;4902630;29;20183;-78
2022/05/01 08:08:57;;;;;;;11.05;4.88;;;11.10;99.90;;;;;;4901040;29;20524;-79
2022/05/01 08:11:23;;;;;;;6.35;4.20;;;11.20;99.90;;;;;;4901971;29;20669;-79
2022/05/01 08:13:48;;;;;;;9.57;4.90;;;11.20;99.90;;;;;;4902026;29;20191;-79
2022/05/01 08:16:14;;;;;;;8.73;4.65;;;11.20;99.90;;;;;;4901702;29;20195;-79
2022/05/01 08:21:24;;;;;;;11.88;5.32;;;11.20;99.90;;;;;;4901983;29;20186;-79
2022/05/01 08:23:52;;;;;;;6.90;4.93;;;11.20;99.90;;;;;;4902113;29;20179;-79
2022/05/01 08:26:18;;;;;;;10.65;4.65;;;11.10;99.90;;;;;;4902021;29;20575;-79
2022/05/01 08:28:45;;;;;;;7.88;4.45;;;11.10;99.90;;;;;;4901820;29;20191;-78
2022/05/01 08:31:11;;;;;;;5.40;4.30;;;11.00;99.90;;;;;;4901374;29;20215;-79
2022/05/01 08:33:37;;;;;;;8.50;4.97;;;11.10;99.90;;;;;;4913930;29;20670;-79
2022/05/01 08:36:05;;;;;;;9.77;4.63;;;11.00;99.90;;;;;;4920653;29;20241;-78
2022/05/01 08:38:31;;;;;;;9.02;4.65;;;11.00;99.90;;;;;;4920378;29;20630;-78
2022/05/01 08:40:57;;;;;;;7.47;4.50;;;10.90;99.90;;;;;;4920582;29;20179;-79
2022/05/01 08:43:24;;;;;;;6.90;4.30;;;11.00;99.90;;;;;;4920482;29;20235;-79
2022/05/01 08:45:53;;;;;;;9.40;4.50;;;11.00;99.90;;;;;;4915345;29;20186;-78
2022/05/01 08:48:37;;;;;;;7.88;4.40;;;11.00;99.90;;;;;;4900830;29;20544;-78
2022/05/01 08:51:04;;;;;;;6.85;4.70;;;11.00;99.90;;;;;;4901446;29;20167;-78
2022/05/01 08:53:31;;;;;;;6.60;4.55;;;11.00;99.90;;;;;;4901330;29;20191;-78
2022/05/01 08:55:57;;;;;;;7.63;4.40;;;11.10;99.90;;;;;;4901267;29;20251;-79
2022/05/01 08:58:26;;;;;;;11.88;4.97;;;11.10;99.90;;;;;;4901180;29;20557;-78
2022/05/01 09:00:53;;;;;;;7.38;4.20;;;11.20;99.90;;;;;;4899945;29;20180;-79
2022/05/01 09:03:18;;;;;;;8.15;4.80;;;11.30;99.90;;;;;;4917667;29;20234;-79
2022/05/01 09:05:44;;;;;;;7.30;4.25;;;11.30;99.90;;;;;;4919504;29;20175;-79
2022/05/01 09:08:11;;;;;;;7.55;4.60;;;11.30;99.90;;;;;;4919955;29;20261;-79
2022/05/01 09:10:39;;;;;;;7.63;4.25;;;11.30;99.90;;;;;;4920101;29;20174;-79
2022/05/01 09:13:06;;;;;;;9.60;4.72;;;11.40;99.90;;;;;;4919941;29;20246;-79
2022/05/01 09:15:35;;;;;;;6.65;4.07;;;11.40;99.90;;;;;;4918311;29;20214;-79
2022/05/01 09:18:06;;;;;;;7.70;4.53;;;11.50;99.90;;;;;;4900976;29;20198;-78
2022/05/01 09:20:32;;;;;;;8.75;4.72;;;11.60;99.90;;;;;;4899229;29;20270;-79
2022/05/01 09:22:59;;;;;;;8.20;4.20;;;11.60;99.90;;;;;;4899690;29;20220;-79
2022/05/01 09:25:27;;;;;;;6.30;4.28;;;11.70;99.90;;;;;;4901028;29;20171;-79
2022/05/01 09:27:57;;;;;;;9.05;4.30;;;11.80;99.90;;;;;;4899732;29;20521;-79
2022/05/01 09:30:34;;;;;;;7.32;4.45;;;11.90;99.90;;;;;;4899473;29;20207;-79
2022/05/01 09:33:01;;;;;;;11.25;5.13;;;11.90;99.90;;;;;;4919522;29;20205;-79
2022/05/01 09:35:36;;;;;;;9.63;4.53;;;11.90;99.90;;;;;;4919225;29;20194;-79
2022/05/01 09:38:18;;;;;;;7.35;4.65;;;11.90;99.90;;;;;;4918354;29;20194;-79
2022/05/01 09:41:14;;;;;;;6.03;4.05;;;11.90;99.90;;;;;;4919389;29;20213;-79
2022/05/01 09:43:42;;;;;;;7.35;4.07;;;11.90;99.90;;;;;;4917977;29;20186;-79
2022/05/01 09:46:20;;;;;;;9.40;4.60;;;12.00;99.90;;;;;;4913535;29;20226;-79
2022/05/01 09:49:03;;;;;;;8.20;4.88;;;12.00;99.90;;;;;;4899972;29;20494;-79
2022/05/01 09:51:31;;;;;;;6.80;4.80;;;12.00;99.90;;;;;;4900309;29;20295;-80
2022/05/01 09:53:58;;;;;;;6.97;4.45;;;12.10;99.90;;;;;;4899736;29;20195;-78
2022/05/01 09:56:24;;;;;;;7.63;3.83;;;12.10;99.90;;;;;;4900250;29;20179;-79
2022/05/01 09:58:58;;;;;;;5.68;3.75;;;12.00;99.90;;;;;;4900278;29;20187;-79
2022/05/01 10:01:23;;;;;;;9.43;4.13;;;12.00;99.90;;;;;;4881359;29;20208;-80
2022/05/01 10:03:52;;;;;;;10.75;3.97;;;12.00;99.90;;;;;;4881153;29;20176;-80
2022/05/01 10:06:19;;;;;;;7.72;3.78;;;12.10;99.90;;;;;;4900847;29;20190;-80
2022/05/01 10:08:46;;;;;;;6.07;3.90;;;12.00;99.90;;;;;;4918661;29;20325;-80
2022/05/01 10:11:16;;;;;;;9.43;3.58;;;12.00;99.90;;;;;;4919002;29;20213;-80
2022/05/01 10:13:44;;;;;;;6.93;4.03;;;12.10;99.90;;;;;;4915885;29;20588;-81
2022/05/01 10:16:11;;;;;;;7.20;3.78;;;12.10;99.90;;;;;;4899856;29;20206;-81
2022/05/01 10:18:38;;;;;;;7.75;3.53;;;12.10;99.90;;;;;;4898858;29;20183;-80
2022/05/01 10:21:05;;;;;;;6.82;3.72;;;12.20;99.90;;;;;;4899541;29;20184;-81
2022/05/01 10:23:32;;;;;;;7.13;4.03;;;12.30;99.90;;;;;;4899787;29;20619;-79
2022/05/01 10:26:06;;;;;;;8.25;4.60;;;12.30;99.90;;;;;;4899652;29;20193;-80
2022/05/01 10:28:38;;;;;;;5.53;3.85;;;12.30;99.90;;;;;;4898455;29;20227;-78
2022/05/01 10:34:35;;;;;;;10.05;4.20;;;12.50;99.90;;;;;;4892696;29;20191;-79
2022/05/01 10:37:00;;;;;;;8.48;4.05;;;12.60;99.90;;;;;;4899405;29;20607;-79
2022/05/01 10:39:34;;;;;;;6.03;3.55;;;12.70;99.90;;;;;;4898206;29;20198;-79
2022/05/01 10:42:00;;;;;;;6.10;3.97;;;12.80;99.90;;;;;;4898461;29;20243;-80
2022/05/01 10:44:33;;;;;;;7.70;3.65;;;13.00;99.90;;;;;;4898531;29;20259;-80
2022/05/01 10:47:17;;;;;;;8.93;3.67;;;13.10;99.90;;;;;;4899323;29;20214;-79
2022/05/01 10:49:44;;;;;;;7.40;4.53;;;13.20;99.90;;;;;;4899074;29;20190;-78
2022/05/01 10:52:21;;;;;;;11.65;4.18;;;13.30;99.90;;;;;;4899066;29;20226;-79
2022/05/01 10:54:51;;;;;;;7.45;4.40;;;13.40;99.90;;;;;;4898922;29;20230;-79
2022/05/01 10:57:17;;;;;;;8.90;4.18;;;13.60;99.90;;;;;;4898860;29;20197;-79
2022/05/01 10:59:46;;;;;;;7.00;3.20;;;13.70;99.90;;;;;;4898352;29;20674;-78
2022/05/01 11:03:01;;;;;;;6.95;3.53;;;13.90;99.90;;;;;;4897772;29;20194;-79
2022/05/01 11:05:44;;;;;;;6.97;3.42;;;14.00;99.90;;;;;;4886994;29;20191;-79
2022/05/01 11:08:19;;;;;;;6.53;3.63;;;14.00;99.90;;;;;;4898942;29;20170;-79
2022/05/01 11:10:46;;;;;;;6.35;3.55;;;14.00;99.90;;;;;;4898052;29;20187;-80
2022/05/01 11:13:18;;;;;;;6.35;3.22;;;13.90;99.90;;;;;;4907171;29;20300;-79
2022/05/01 11:15:47;;;;;;;4.80;3.00;;;14.00;99.90;;;;;;4928661;29;20239;-78
2022/05/01 11:18:13;;;;;;;6.97;2.92;;;14.20;99.90;;;;;;4898926;29;20167;-79
2022/05/01 11:20:40;;;;;;;4.78;3.22;;;14.30;99.90;;;;;;4898717;29;20175;-79
2022/05/01 11:23:30;;;;;;;9.13;2.85;;;14.40;99.70;;;;;;4898499;29;20191;-79
2022/05/01 11:26:10;;;;;;;8.13;2.53;;;14.50;98.80;;;;;;4898891;29;20189;-80
2022/05/01 11:28:43;;;;;;;4.70;2.53;;;14.50;98.90;;;;;;4898818;29;20182;-79
2022/05/01 11:31:37;;;;;;;4.80;2.20;;;14.60;98.00;;;;;;4902729;29;20255;-80
2022/05/01 11:34:22;;;;;;;6.60;2.95;;;14.50;94.60;;;;;;4902520;29;20179;-79
2022/05/01 11:36:56;;;;;;;6.25;2.80;;;14.50;98.00;;;;;;4894207;29;20199;-79
2022/05/01 11:39:22;;;;;;;6.20;3.25;;;14.70;96.10;;;;;;4882708;29;20187;-79
2022/05/01 11:42:05;;;;;;;6.70;3.28;;;14.70;94.60;;;;;;4894043;29;20752;-79
2022/05/01 11:44:34;;;;;;;6.10;3.40;;;14.70;95.70;;;;;;4899121;29;20517;-80
2022/05/01 11:47:03;;;;;;;3.97;2.67;;;14.70;95.70;;;;;;4896611;29;20286;-79
2022/05/01 11:49:28;;;;;;;6.28;3.25;;;14.90;96.70;;;;;;4902128;29;20646;-79
2022/05/01 11:51:58;;;;;;;8.73;3.15;;;15.00;95.50;;;;;;4902177;29;20253;-79
2022/05/01 11:54:25;;;;;;;7.07;3.45;;;15.10;95.30;;;;;;4902212;29;20234;-79
2022/05/01 12:02:24;;;;;;;6.82;3.15;;;15.60;96.70;;;;;;4902406;29;20178;-80
2022/05/01 12:04:51;;;;;;;8.00;3.20;;;15.70;95.10;;;;;;4901568;29;20179;-79
2022/05/01 12:07:18;;;;;;;6.40;3.20;;;15.60;95.40;;;;;;4902250;29;20203;-80
2022/05/01 12:09:50;;;;;;;3.80;2.90;;;15.50;95.00;;;;;;4902047;29;20206;-79
2022/05/01 12:12:19;;;;;;;4.03;2.85;;;15.30;96.00;;;;;;4901983;29;20210;-79
2022/05/01 12:14:46;;;;;;;5.22;2.83;;;15.20;94.40;;;;;;4902030;29;20183;-79
2022/05/01 12:17:14;;;;;;;4.35;3.53;;;15.40;96.80;;;;;;4901859;29;20248;-79
2022/05/01 12:19:46;;;;;;;5.13;3.08;;;15.50;94.90;;;;;;4892711;29;20192;-80
2022/05/01 12:22:15;;;;;;;6.70;3.70;;;15.70;95.30;;;;;;4889723;29;20263;-80
2022/05/01 12:24:41;;;;;;;5.82;2.88;;;15.80;94.30;;;;;;4881874;29;20194;-80
2022/05/01 12:27:08;;;;;;;6.18;3.30;;;15.90;97.30;;;;;;4891331;29;20187;-79
2022/05/01 12:29:36;;;;;;;5.07;3.40;;;16.00;94.50;;;;;;4889550;29;20195;-79
2022/05/01 12:32:12;;;;;;;8.15;3.08;;;16.40;96.50;;;;;;4882897;29;20530;-80
2022/05/01 12:34:55;;;;;;;6.40;3.35;;;16.70;95.00;;;;;;4882630;29;20197;-78
2022/05/01 12:37:30;;;;;;;8.55;3.35;;;16.90;94.80;;;;;;4895213;29;20195;-79
2022/05/01 12:40:10;;;;;;;8.07;3.20;;;17.00;94.50;;;;;;4900903;29;20167;-80
2022/05/01 12:45:44;;;;;;;7.60;3.53;;;17.20;93.10;;;;;;4901467;29;20231;-79
2022/05/01 12:48:11;;;;;;;5.93;3.03;;;17.40;91.90;;;;;;4900230;29;20258;-79
2022/05/01 12:50:38;;;;;;;5.82;2.95;;;17.10;89.90;;;;;;4900232;29;20553;-80
2022/05/01 12:53:28;;;;;;;4.60;2.97;;;16.70;91.70;;;;;;4899735;29;20215;-80
2022/05/01 12:55:55;;;;;;;9.27;3.55;;;16.50;92.50;;;;;;4901041;29;20349;-79
2022/05/01 12:58:30;;;;;;;6.70;3.15;;;16.50;92.10;;;;;;4900300;29;20183;-80
2022/05/01 13:00:57;;;;;;;5.95;3.20;;;16.40;93.40;;;;;;4900080;29;20262;-80
2022/05/01 13:03:36;;;;;;;6.47;3.20;;;16.50;93.40;;;;;;4901242;29;20175;-79
2022/05/01 13:06:06;;;;;;;8.05;2.80;;;16.70;92.00;;;;;;4900844;29;20176;-80
2022/05/01 13:08:38;;;;;;;8.25;3.28;;;16.90;92.10;;;;;;4900907;29;20262;-80
2022/05/01 13:11:27;;;;;;;16.58;3.92;;;16.90;93.00;;;;;;4901085;29;20170;-80
2022/05/01 13:14:04;;;;;;;11.45;3.60;;;16.90;93.30;;;;;;4900858;29;20571;-80
2022/05/01 13:16:33;;;;;;;20.23;3.97;;;16.70;93.90;;;;;;4901212;29;20183;-80
2022/05/01 13:19:05;;;;;;;9.65;3.60;;;16.60;94.00;;;;;;4900501;29;20227;-80
2022/05/01 13:21:33;;;;;;;7.13;3.60;;;16.50;94.70;;;;;;4900733;29;20739;-79